Time;durP1;ratioP1;P1;durP2;ratioP2;P2;SDS_P1;SDS_P2;PMS_P1;PMS_P2;Temp;Humidity;BMP_temperature;BMP_pressure;BME280_temperature;BME280_humidity;BME280_pressure;Samples;Min_cycle;Max_cycle;Signal;HPM_P1;HPM_P2
2023/05/28 00:02:03;;;;;;;8.32;4.70;;;17.50;40.90;;;;;;4997473;28;20050;-52
2023/05/28 00:04:31;;;;;;;11.32;4.45;;;17.50;40.90;;;;;;5001351;28;20417;-52
2023/05/28 00:06:59;;;;;;;8.77;4.20;;;17.40;41.10;;;;;;4999038;28;20050;-52
2023/05/28 00:09:26;;;;;;;10.02;4.35;;;17.40;41.10;;;;;;4998652;28;20062;-50
2023/05/28 00:11:54;;;;;;;8.85;4.15;;;17.40;41.20;;;;;;5001772;28;20121;-51
2023/05/28 00:14:21;;;;;;;8.70;4.05;;;17.30;41.20;;;;;;5001637;28;20057;-50
2023/05/28 00:16:51;;;;;;;9.23;4.05;;;17.30;41.30;;;;;;4998537;28;20053;-49
2023/05/28 00:19:18;;;;;;;6.93;3.67;;;17.20;41.50;;;;;;4998625;28;20061;-52
2023/05/28 00:21:46;;;;;;;9.63;3.97;;;17.20;41.60;;;;;;4998017;28;20053;-51
2023/05/28 00:24:14;;;;;;;7.72;3.80;;;17.20;41.80;;;;;;4999688;28;20062;-52
2023/05/28 00:26:41;;;;;;;7.47;3.92;;;17.20;41.90;;;;;;4999510;28;20050;-52
2023/05/28 00:29:08;;;;;;;10.35;4.85;;;17.20;41.90;;;;;;5000875;28;20065;-51
2023/05/28 00:31:35;;;;;;;9.98;4.80;;;17.10;41.90;;;;;;5000361;28;20054;-51
2023/05/28 00:34:03;;;;;;;14.05;5.22;;;17.10;42.00;;;;;;4996906;28;20406;-46
2023/05/28 00:36:30;;;;;;;11.70;5.00;;;17.10;42.00;;;;;;4996275;28;20081;-44
2023/05/28 00:38:59;;;;;;;8.70;4.00;;;17.00;42.00;;;;;;4999834;28;20054;-50
2023/05/28 00:41:26;;;;;;;10.50;4.45;;;16.90;42.00;;;;;;4999840;28;20054;-51
2023/05/28 00:43:53;;;;;;;10.75;5.10;;;17.00;42.20;;;;;;5000526;28;20069;-52
2023/05/28 00:46:22;;;;;;;8.43;4.35;;;16.90;42.30;;;;;;4996891;28;20068;-47
2023/05/28 00:48:50;;;;;;;11.27;5.15;;;16.90;42.30;;;;;;4999992;28;20068;-47
2023/05/28 00:51:18;;;;;;;8.02;4.50;;;16.80;42.30;;;;;;4997736;28;20081;-52
2023/05/28 00:53:45;;;;;;;9.25;4.47;;;16.80;42.30;;;;;;4999142;28;20138;-50
2023/05/28 00:56:15;;;;;;;11.07;5.00;;;16.80;42.40;;;;;;4999111;28;20058;-52
2023/05/28 00:58:44;;;;;;;10.02;4.85;;;16.70;42.50;;;;;;5000678;28;20062;-47
2023/05/28 01:01:11;;;;;;;11.48;4.57;;;16.70;42.60;;;;;;5031963;23;20058;-90
2023/05/28 01:03:39;;;;;;;6.88;3.80;;;16.70;42.70;;;;;;4988913;28;20061;-90
2023/05/28 01:06:11;;;;;;;12.30;5.55;;;16.70;42.90;;;;;;4990062;28;20046;-91
2023/05/28 01:08:39;;;;;;;9.48;4.78;;;16.60;42.90;;;;;;4992609;28;20053;-89
2023/05/28 01:11:07;;;;;;;13.70;5.25;;;16.60;42.90;;;;;;4990485;28;20061;-90
2023/05/28 01:13:37;;;;;;;10.68;4.82;;;16.60;42.90;;;;;;4994407;28;20398;-89
2023/05/28 01:16:06;;;;;;;7.68;4.15;;;16.60;43.00;;;;;;4993334;28;20053;-90
2023/05/28 01:18:34;;;;;;;9.80;4.57;;;16.50;42.90;;;;;;4996820;28;20057;-91
2023/05/28 01:21:03;;;;;;;11.32;4.05;;;16.50;43.00;;;;;;4993354;28;20379;-89
2023/05/28 01:23:39;;;;;;;10.15;5.00;;;16.50;43.10;;;;;;4994705;28;20054;-90
2023/05/28 01:26:08;;;;;;;8.50;4.10;;;16.50;43.30;;;;;;4996763;28;20042;-90
2023/05/28 01:28:35;;;;;;;10.52;4.85;;;16.40;43.20;;;;;;4998237;28;20069;-89
2023/05/28 01:31:03;;;;;;;8.05;4.35;;;16.40;43.50;;;;;;4991490;28;20050;-90
2023/05/28 01:33:33;;;;;;;8.88;4.10;;;16.40;43.50;;;;;;4995797;28;20061;-90
2023/05/28 01:36:02;;;;;;;9.57;4.00;;;16.40;43.70;;;;;;5002360;28;20413;-89
2023/05/28 01:38:30;;;;;;;7.07;3.55;;;16.30;43.80;;;;;;4995679;28;20060;-90
2023/05/28 01:40:59;;;;;;;9.32;4.43;;;16.30;43.80;;;;;;4995457;28;20054;-90
2023/05/28 01:43:28;;;;;;;9.15;4.22;;;16.30;43.90;;;;;;4998349;28;20065;-90
2023/05/28 01:45:55;;;;;;;11.10;5.40;;;16.30;43.90;;;;;;4992883;28;20049;-89
2023/05/28 01:48:24;;;;;;;8.70;4.90;;;16.20;43.90;;;;;;4996826;28;20050;-89
2023/05/28 01:50:53;;;;;;;11.15;4.85;;;16.20;44.00;;;;;;4997555;28;20053;-89
2023/05/28 01:53:20;;;;;;;8.32;4.32;;;16.10;43.90;;;;;;4995997;28;20065;-90
2023/05/28 01:55:48;;;;;;;9.18;4.72;;;16.10;44.00;;;;;;4995119;28;20053;-89
2023/05/28 01:58:18;;;;;;;8.77;4.53;;;16.10;44.10;;;;;;4994678;28;20125;-90
2023/05/28 02:00:52;;;;;;;9.45;4.53;;;16.10;44.20;;;;;;4997056;28;20096;-90
2023/05/28 02:03:19;;;;;;;6.80;4.25;;;16.00;44.30;;;;;;4998287;28;20065;-89
2023/05/28 02:05:46;;;;;;;9.20;4.57;;;16.00;44.30;;;;;;4994972;28;20061;-91
2023/05/28 02:08:14;;;;;;;9.63;4.55;;;16.00;44.40;;;;;;5002126;28;20049;-90
2023/05/28 02:10:43;;;;;;;8.27;4.68;;;15.90;44.30;;;;;;4997410;28;20050;-90
2023/05/28 02:13:11;;;;;;;14.23;5.05;;;15.90;44.40;;;;;;4997216;28;20061;-90
2023/05/28 02:15:40;;;;;;;12.70;4.72;;;15.90;44.40;;;;;;4996050;28;20050;-89
2023/05/28 02:18:10;;;;;;;9.85;4.22;;;15.80;44.50;;;;;;4997497;28;20045;-90
2023/05/28 02:20:37;;;;;;;10.02;4.78;;;15.80;44.60;;;;;;4999337;28;20049;-88
2023/05/28 02:23:04;;;;;;;11.88;5.03;;;15.70;44.60;;;;;;4994762;28;20104;-90
2023/05/28 02:25:32;;;;;;;9.65;5.35;;;15.70;44.80;;;;;;4997520;28;20065;-89
2023/05/28 02:28:00;;;;;;;8.02;4.50;;;15.70;44.80;;;;;;5005280;28;20740;-90
2023/05/28 02:30:27;;;;;;;9.57;4.60;;;15.60;44.90;;;;;;4995941;28;20065;-90
2023/05/28 02:32:56;;;;;;;7.78;4.15;;;15.60;45.00;;;;;;4995020;28;20054;-90
2023/05/28 02:35:24;;;;;;;7.30;4.32;;;15.60;45.10;;;;;;4998105;28;20058;-90
2023/05/28 02:37:51;;;;;;;10.88;5.03;;;15.50;45.10;;;;;;4997722;28;20054;-88
2023/05/28 02:40:19;;;;;;;12.82;4.95;;;15.50;45.20;;;;;;4996373;28;20061;-89
2023/05/28 02:42:46;;;;;;;10.35;4.45;;;15.50;45.30;;;;;;4996630;28;20050;-89
2023/05/28 02:45:14;;;;;;;9.45;4.63;;;15.40;45.20;;;;;;4998092;28;20065;-90
2023/05/28 02:47:41;;;;;;;9.93;4.88;;;15.40;45.30;;;;;;4988961;28;20054;-90
2023/05/28 02:50:11;;;;;;;8.13;4.15;;;15.40;45.40;;;;;;4982575;28;20054;-91
2023/05/28 02:52:38;;;;;;;8.85;5.15;;;15.30;45.50;;;;;;4993125;28;20053;-90
2023/05/28 02:55:07;;;;;;;11.90;5.07;;;15.30;45.60;;;;;;4994290;28;20062;-91
2023/05/28 02:57:37;;;;;;;11.68;4.90;;;15.30;46.10;;;;;;4992752;28;20053;-89
2023/05/28 03:00:09;;;;;;;12.20;4.75;;;15.30;45.60;;;;;;4999519;28;20049;-89
2023/05/28 03:02:36;;;;;;;10.10;4.85;;;15.20;45.60;;;;;;4991875;28;20050;-90
2023/05/28 03:05:04;;;;;;;9.95;5.28;;;15.20;45.70;;;;;;4997633;28;20054;-89
2023/05/28 03:07:36;;;;;;;10.23;4.70;;;15.20;45.70;;;;;;4986499;28;20609;-91
2023/05/28 03:10:10;;;;;;;10.30;4.68;;;15.10;45.90;;;;;;4989968;28;20061;-89
2023/05/28 03:12:44;;;;;;;10.00;5.07;;;15.10;46.00;;;;;;4992864;28;20473;-91
2023/05/28 03:18:09;;;;;;;8.88;4.47;;;15.10;46.30;;;;;;5012308;28;20052;-45
2023/05/28 03:20:36;;;;;;;9.65;5.28;;;15.10;46.20;;;;;;5018908;28;20382;-45
2023/05/28 03:23:05;;;;;;;11.82;5.57;;;15.00;46.20;;;;;;5018759;28;20080;-44
2023/05/28 03:25:32;;;;;;;10.95;5.75;;;15.00;46.40;;;;;;5019428;28;20065;-46
2023/05/28 03:27:59;;;;;;;10.82;5.32;;;15.00;46.50;;;;;;5018923;28;20500;-45
2023/05/28 03:30:26;;;;;;;16.48;5.75;;;14.90;46.50;;;;;;5019342;28;20064;-46
2023/05/28 03:32:54;;;;;;;13.02;5.60;;;14.80;46.50;;;;;;5018319;28;20053;-44
2023/05/28 03:35:21;;;;;;;14.15;5.65;;;14.80;46.60;;;;;;5019768;28;20049;-46
2023/05/28 03:37:48;;;;;;;13.30;6.38;;;14.80;46.70;;;;;;5018335;28;20710;-45
2023/05/28 03:40:17;;;;;;;13.77;5.78;;;14.80;46.80;;;;;;5019434;28;20045;-45
2023/05/28 03:42:45;;;;;;;11.85;5.50;;;14.80;46.80;;;;;;5019230;28;20053;-47
2023/05/28 03:45:12;;;;;;;10.90;5.22;;;14.70;46.80;;;;;;5018194;28;20057;-47
2023/05/28 03:47:39;;;;;;;10.70;5.38;;;14.70;46.90;;;;;;5015618;28;20057;-45
2023/05/28 03:50:07;;;;;;;7.97;4.80;;;14.70;46.90;;;;;;5021610;28;20520;-46
2023/05/28 03:52:34;;;;;;;9.52;5.22;;;14.60;47.00;;;;;;5014100;28;20049;-45
2023/05/28 03:55:02;;;;;;;9.48;5.20;;;14.60;47.10;;;;;;5019942;28;20492;-45
2023/05/28 03:57:30;;;;;;;12.32;5.65;;;14.60;47.20;;;;;;5017558;28;20053;-45
2023/05/28 03:59:57;;;;;;;11.77;5.53;;;14.60;47.40;;;;;;5018011;28;20057;-48
2023/05/28 04:02:25;;;;;;;12.60;5.68;;;14.60;47.40;;;;;;5017439;28;20057;-47
2023/05/28 04:04:52;;;;;;;10.63;5.28;;;14.50;47.40;;;;;;5018822;28;20065;-45
2023/05/28 04:07:20;;;;;;;8.98;4.90;;;14.50;47.40;;;;;;5017102;28;20057;-46
2023/05/28 04:09:47;;;;;;;9.63;4.80;;;14.50;47.40;;;;;;5017108;28;20050;-46
2023/05/28 04:12:14;;;;;;;10.25;5.07;;;14.50;47.50;;;;;;5017216;28;20053;-45
2023/05/28 04:14:43;;;;;;;10.85;4.93;;;14.50;47.70;;;;;;5017739;28;20061;-47
2023/05/28 04:17:12;;;;;;;7.47;4.45;;;14.40;47.60;;;;;;5006572;28;20068;-47
2023/05/28 04:19:40;;;;;;;11.48;5.43;;;14.40;47.70;;;;;;5013379;28;20409;-45
2023/05/28 04:22:08;;;;;;;10.25;4.88;;;14.40;47.80;;;;;;5015453;28;20045;-48
2023/05/28 04:24:36;;;;;;;13.85;5.53;;;14.40;47.90;;;;;;5015913;28;20489;-45
2023/05/28 04:27:03;;;;;;;9.43;5.05;;;14.40;47.90;;;;;;5017405;28;20061;-47
2023/05/28 04:29:33;;;;;;;10.27;5.30;;;14.40;48.00;;;;;;5016474;28;20068;-45
2023/05/28 04:32:01;;;;;;;12.75;5.20;;;14.40;48.00;;;;;;5015368;28;20045;-46
2023/05/28 04:34:29;;;;;;;9.25;5.45;;;14.40;48.10;;;;;;5018378;28;20060;-46
2023/05/28 04:36:57;;;;;;;10.15;5.55;;;14.40;48.20;;;;;;5016275;28;20437;-47
2023/05/28 04:39:26;;;;;;;13.70;5.45;;;14.30;48.20;;;;;;5012748;28;20053;-46
2023/05/28 04:41:54;;;;;;;10.20;5.38;;;14.40;48.30;;;;;;5013676;28;20060;-46
2023/05/28 04:44:25;;;;;;;12.38;5.05;;;14.30;48.30;;;;;;5018661;28;20054;-46
2023/05/28 04:46:52;;;;;;;15.00;7.03;;;14.40;48.40;;;;;;5014828;28;20058;-46
2023/05/28 04:49:21;;;;;;;8.23;5.20;;;14.40;48.40;;;;;;5013069;28;20065;-46
2023/05/28 04:51:48;;;;;;;12.02;6.20;;;14.30;48.50;;;;;;5013958;28;20073;-48
2023/05/28 04:54:15;;;;;;;10.77;5.10;;;14.30;48.60;;;;;;5022321;28;20058;-48
2023/05/28 04:56:43;;;;;;;8.50;5.25;;;14.40;48.70;;;;;;5021963;28;20045;-45
2023/05/28 04:59:10;;;;;;;11.25;5.13;;;14.40;48.70;;;;;;5016288;28;20057;-45
2023/05/28 05:01:38;;;;;;;9.95;4.85;;;14.40;48.90;;;;;;5014456;28;20065;-45
2023/05/28 05:04:06;;;;;;;12.40;6.10;;;14.40;48.90;;;;;;5018054;28;20059;-46
2023/05/28 05:06:35;;;;;;;15.25;7.53;;;14.40;48.90;;;;;;5016641;28;20065;-45
2023/05/28 05:09:04;;;;;;;14.85;7.20;;;14.50;49.10;;;;;;5018515;28;20053;-46
2023/05/28 05:11:32;;;;;;;14.55;6.40;;;14.50;49.20;;;;;;5021804;28;20423;-48
2023/05/28 05:13:59;;;;;;;9.95;4.97;;;14.50;49.40;;;;;;5021790;28;20041;-48
2023/05/28 05:16:26;;;;;;;7.68;4.93;;;14.50;49.40;;;;;;5019179;28;20061;-48
2023/05/28 05:18:54;;;;;;;8.70;4.53;;;14.60;49.50;;;;;;5020620;28;20414;-47
2023/05/28 05:21:21;;;;;;;9.75;4.65;;;14.60;49.60;;;;;;5018730;28;20072;-48
2023/05/28 05:23:50;;;;;;;15.18;5.22;;;14.60;49.70;;;;;;5022521;28;20133;-46
2023/05/28 05:26:18;;;;;;;11.13;4.65;;;14.70;50.00;;;;;;5022074;28;20694;-46
2023/05/28 05:28:45;;;;;;;6.95;4.10;;;14.70;50.00;;;;;;5019390;28;20052;-46
2023/05/28 05:31:13;;;;;;;9.27;4.38;;;14.80;49.90;;;;;;5021149;28;20073;-46
2023/05/28 05:33:41;;;;;;;12.70;5.60;;;14.80;50.00;;;;;;5021919;28;20382;-44
2023/05/28 05:36:10;;;;;;;9.77;4.50;;;14.80;50.10;;;;;;5017101;28;20057;-45
2023/05/28 05:38:38;;;;;;;9.43;4.63;;;14.90;50.30;;;;;;5020713;28;20045;-49
2023/05/28 05:41:06;;;;;;;6.95;4.20;;;14.90;50.20;;;;;;5020321;28;20057;-48
2023/05/28 05:43:33;;;;;;;26.52;12.85;;;15.00;50.20;;;;;;5019007;28;20049;-50
2023/05/28 05:46:01;;;;;;;28.98;12.27;;;15.00;50.10;;;;;;5014701;28;20050;-46
2023/05/28 05:48:28;;;;;;;20.35;8.48;;;15.10;50.20;;;;;;5019497;28;20049;-47
2023/05/28 05:50:57;;;;;;;11.98;5.80;;;15.10;50.30;;;;;;5020939;28;20472;-46
2023/05/28 05:53:25;;;;;;;12.73;5.13;;;15.20;50.30;;;;;;5009267;28;20057;-47
2023/05/28 05:55:52;;;;;;;9.73;4.47;;;15.20;50.40;;;;;;5015900;28;20068;-47
2023/05/28 05:58:21;;;;;;;12.80;5.00;;;15.30;50.40;;;;;;5021543;28;20425;-48
2023/05/28 06:00:48;;;;;;;11.02;5.00;;;15.40;50.50;;;;;;5016064;28;20049;-48
2023/05/28 06:03:15;;;;;;;9.27;4.65;;;15.40;50.60;;;;;;5012067;28;20045;-45
2023/05/28 06:05:43;;;;;;;9.00;4.75;;;15.50;50.80;;;;;;5012728;28;20053;-45
2023/05/28 06:08:10;;;;;;;9.35;5.15;;;15.60;50.90;;;;;;5018260;28;21513;-45
2023/05/28 06:10:37;;;;;;;11.50;5.15;;;15.60;50.90;;;;;;5017822;28;20496;-47
2023/05/28 06:13:04;;;;;;;7.47;4.60;;;15.70;51.10;;;;;;5019250;28;20080;-46
2023/05/28 06:15:33;;;;;;;11.20;4.65;;;15.80;51.10;;;;;;5019815;28;20064;-46
2023/05/28 06:18:00;;;;;;;8.63;5.10;;;15.90;51.10;;;;;;5017179;28;20449;-46
2023/05/28 06:20:28;;;;;;;13.52;5.53;;;16.00;51.10;;;;;;5021849;28;20060;-44
2023/05/28 06:22:56;;;;;;;9.23;5.15;;;16.00;51.70;;;;;;5019027;28;20057;-45
2023/05/28 06:25:23;;;;;;;12.75;5.15;;;16.10;51.40;;;;;;5020334;28;20531;-45
2023/05/28 06:27:51;;;;;;;8.75;5.40;;;16.20;51.30;;;;;;5013424;28;20486;-45
2023/05/28 06:30:19;;;;;;;10.35;5.80;;;16.20;51.80;;;;;;5016601;28;20056;-49
2023/05/28 06:32:48;;;;;;;14.57;6.63;;;16.30;51.40;;;;;;5018185;28;20065;-48
2023/05/28 06:35:16;;;;;;;11.32;5.00;;;16.40;51.30;;;;;;5018849;28;20065;-44
2023/05/28 06:37:44;;;;;;;14.55;5.65;;;16.50;51.10;;;;;;5016208;28;20061;-46
2023/05/28 06:40:12;;;;;;;13.63;6.15;;;16.50;51.20;;;;;;5018078;28;20061;-45
2023/05/28 06:42:40;;;;;;;15.57;5.95;;;16.60;51.60;;;;;;5017404;28;20481;-44
2023/05/28 06:45:09;;;;;;;8.65;4.97;;;16.60;51.50;;;;;;5017943;28;20053;-47
2023/05/28 06:47:36;;;;;;;14.20;5.47;;;16.70;50.90;;;;;;5016956;28;20060;-44
2023/05/28 06:50:06;;;;;;;14.13;5.78;;;16.70;50.70;;;;;;5019104;28;20053;-45
2023/05/28 06:52:33;;;;;;;12.00;5.60;;;16.70;50.80;;;;;;5019979;28;20057;-44
2023/05/28 06:55:00;;;;;;;11.57;5.32;;;16.80;51.10;;;;;;5019283;28;20060;-45
2023/05/28 06:57:28;;;;;;;12.80;5.00;;;16.80;51.10;;;;;;5019861;28;20053;-44
2023/05/28 06:59:55;;;;;;;12.93;5.65;;;16.90;50.70;;;;;;5020520;28;20053;-44
2023/05/28 07:02:22;;;;;;;10.45;5.15;;;16.90;50.60;;;;;;5020975;28;20148;-46
2023/05/28 07:04:50;;;;;;;13.25;5.38;;;17.00;50.70;;;;;;5020331;28;20516;-44
2023/05/28 07:07:19;;;;;;;8.23;4.35;;;17.10;50.60;;;;;;5018771;28;20086;-48
2023/05/28 07:09:47;;;;;;;8.55;3.90;;;17.10;50.60;;;;;;5020293;28;20056;-44
2023/05/28 07:12:14;;;;;;;8.82;4.38;;;17.20;50.50;;;;;;5018093;28;20528;-45
2023/05/28 07:14:41;;;;;;;8.90;3.70;;;17.30;50.50;;;;;;5018624;28;20065;-46
2023/05/28 07:17:08;;;;;;;6.20;3.67;;;17.40;50.60;;;;;;5016793;28;20068;-46
2023/05/28 07:19:35;;;;;;;9.63;3.72;;;17.50;50.30;;;;;;5018061;28;20544;-45
2023/05/28 07:22:03;;;;;;;9.57;3.90;;;17.50;49.50;;;;;;5018391;28;20057;-45
2023/05/28 07:24:31;;;;;;;8.20;3.70;;;17.60;49.60;;;;;;5016731;28;20045;-45
2023/05/28 07:26:58;;;;;;;7.78;3.75;;;17.70;48.90;;;;;;5017914;28;20045;-46
2023/05/28 07:29:27;;;;;;;6.85;3.15;;;17.80;48.90;;;;;;5019361;28;20057;-47
2023/05/28 07:31:54;;;;;;;8.60;3.88;;;17.90;48.80;;;;;;5019135;28;20056;-48
2023/05/28 07:34:21;;;;;;;11.20;4.30;;;18.00;48.80;;;;;;5019428;28;20058;-44
2023/05/28 07:36:48;;;;;;;14.35;4.50;;;18.00;48.00;;;;;;5018364;28;20050;-46
2023/05/28 07:39:16;;;;;;;10.25;4.55;;;18.10;47.70;;;;;;5019655;28;20398;-48
2023/05/28 07:41:44;;;;;;;9.38;4.30;;;18.20;47.70;;;;;;5018516;28;20535;-48
2023/05/28 07:44:12;;;;;;;10.82;4.60;;;18.30;47.70;;;;;;5018761;28;20052;-44
2023/05/28 07:46:39;;;;;;;9.57;4.30;;;18.40;47.50;;;;;;5018824;28;20501;-48
2023/05/28 07:49:06;;;;;;;9.43;4.60;;;18.40;47.30;;;;;;5019559;28;20115;-45
2023/05/28 07:51:33;;;;;;;17.90;5.00;;;18.50;47.30;;;;;;5016310;28;20049;-45
2023/05/28 07:54:01;;;;;;;14.60;4.10;;;18.60;47.00;;;;;;5020058;28;20053;-44
2023/05/28 07:56:28;;;;;;;11.52;4.30;;;18.60;46.80;;;;;;5019725;28;20049;-45
2023/05/28 07:58:57;;;;;;;8.90;4.00;;;18.70;46.60;;;;;;5018881;28;20060;-45
2023/05/28 08:01:24;;;;;;;10.90;4.13;;;18.80;46.70;;;;;;5017080;28;20496;-49
2023/05/28 08:03:54;;;;;;;7.20;3.65;;;18.90;46.40;;;;;;5018921;28;20390;-44
2023/05/28 08:06:21;;;;;;;9.65;3.97;;;18.90;46.30;;;;;;5016620;28;20057;-50
2023/05/28 08:08:48;;;;;;;7.20;3.38;;;19.00;46.90;;;;;;5017266;28;20061;-49
2023/05/28 08:11:16;;;;;;;9.98;3.70;;;19.10;46.80;;;;;;5017063;28;20061;-48
2023/05/28 08:13:43;;;;;;;11.27;4.00;;;19.10;46.70;;;;;;5002044;28;20060;-46
2023/05/28 08:16:13;;;;;;;7.65;3.75;;;19.20;46.60;;;;;;5016093;28;20084;-44
2023/05/28 08:18:40;;;;;;;13.43;4.20;;;19.30;46.10;;;;;;5017382;28;20064;-42
2023/05/28 08:21:08;;;;;;;9.85;3.85;;;19.40;46.10;;;;;;5016025;28;20490;-46
2023/05/28 08:23:35;;;;;;;10.00;3.63;;;19.50;45.90;;;;;;5016249;28;20052;-44
2023/05/28 08:26:03;;;;;;;14.43;4.60;;;19.50;45.80;;;;;;5014725;28;21703;-44
2023/05/28 08:28:30;;;;;;;11.90;4.60;;;19.60;45.30;;;;;;5015877;28;20061;-44
2023/05/28 08:30:58;;;;;;;14.93;4.47;;;19.70;44.90;;;;;;5018168;28;20065;-46
2023/05/28 08:33:26;;;;;;;7.45;3.75;;;19.70;44.80;;;;;;5017320;28;20049;-45
2023/05/28 08:35:54;;;;;;;9.85;3.70;;;19.80;45.00;;;;;;5015541;28;20053;-45
2023/05/28 08:38:21;;;;;;;11.55;3.95;;;19.90;44.30;;;;;;5017407;28;20125;-44
2023/05/28 08:40:54;;;;;;;16.30;4.32;;;19.90;43.80;;;;;;5015011;28;20060;-43
2023/05/28 08:43:21;;;;;;;10.77;4.20;;;20.00;43.60;;;;;;5015924;28;20061;-44
2023/05/28 08:45:49;;;;;;;10.55;3.78;;;20.10;42.80;;;;;;5016801;28;20060;-43
2023/05/28 08:48:16;;;;;;;14.70;3.95;;;20.20;42.60;;;;;;5014895;28;20069;-44
2023/05/28 08:50:51;;;;;;;13.25;3.97;;;20.20;42.60;;;;;;5020008;28;20088;-44
2023/05/28 08:53:21;;;;;;;12.07;4.80;;;20.30;42.40;;;;;;5015248;28;20049;-44
2023/05/28 08:55:48;;;;;;;12.73;4.00;;;20.30;42.60;;;;;;5015836;28;20045;-44
2023/05/28 08:58:17;;;;;;;7.90;3.50;;;20.40;42.40;;;;;;5015337;28;20061;-44
2023/05/28 09:00:45;;;;;;;12.10;3.90;;;20.50;42.60;;;;;;5011726;28;20061;-44
2023/05/28 09:03:12;;;;;;;13.40;4.68;;;20.60;42.40;;;;;;5015542;28;20086;-46
2023/05/28 09:05:39;;;;;;;13.15;4.28;;;20.60;42.70;;;;;;5010194;28;20060;-44
2023/05/28 09:08:10;;;;;;;10.18;4.28;;;20.70;42.80;;;;;;5012999;28;20053;-45
2023/05/28 09:10:38;;;;;;;8.57;3.75;;;20.80;42.60;;;;;;5012565;28;20050;-47
2023/05/28 09:13:06;;;;;;;8.30;3.85;;;20.80;42.10;;;;;;5016081;28;20054;-44
2023/05/28 09:15:35;;;;;;;9.30;4.65;;;20.80;42.00;;;;;;5010377;28;20049;-46
2023/05/28 09:18:04;;;;;;;9.45;3.75;;;20.90;42.30;;;;;;5012929;28;20061;-43
2023/05/28 09:20:32;;;;;;;10.35;4.07;;;21.00;42.20;;;;;;5012423;28;20050;-46
2023/05/28 09:23:01;;;;;;;7.45;3.70;;;21.00;42.10;;;;;;5010897;28;20061;-44
2023/05/28 09:25:32;;;;;;;13.57;3.78;;;21.10;42.40;;;;;;5012922;28;20069;-43
2023/05/28 09:28:01;;;;;;;9.98;3.75;;;21.20;42.80;;;;;;5014950;28;20061;-44
2023/05/28 09:30:29;;;;;;;14.07;4.57;;;21.20;42.40;;;;;;5013465;28;20608;-46
2023/05/28 09:32:58;;;;;;;11.00;4.05;;;21.30;42.30;;;;;;4993391;28;20378;-48
2023/05/28 09:35:27;;;;;;;7.45;3.70;;;21.30;42.30;;;;;;5011413;28;20057;-44
2023/05/28 09:38:01;;;;;;;11.60;4.40;;;21.40;41.90;;;;;;5012613;28;20054;-45
2023/05/28 09:40:29;;;;;;;8.73;3.80;;;21.50;41.20;;;;;;5014442;28;20412;-43
2023/05/28 09:42:57;;;;;;;9.90;3.65;;;21.50;41.10;;;;;;5014157;28;20058;-52
2023/05/28 09:45:26;;;;;;;9.48;3.95;;;21.60;41.10;;;;;;5015747;28;20045;-44
2023/05/28 09:47:53;;;;;;;6.55;3.60;;;21.60;40.90;;;;;;5019920;28;20053;-44
2023/05/28 09:50:20;;;;;;;10.25;4.18;;;21.70;41.00;;;;;;5021495;28;20053;-44
2023/05/28 09:52:48;;;;;;;11.32;4.10;;;21.70;41.20;;;;;;5018603;28;20072;-43
2023/05/28 09:55:18;;;;;;;10.45;4.53;;;21.70;40.90;;;;;;5022644;28;20508;-45
2023/05/28 09:58:00;;;;;;;12.32;4.68;;;21.80;41.40;;;;;;5023186;28;20054;-44
2023/05/28 10:00:32;;;;;;;12.38;4.35;;;21.90;41.70;;;;;;5013438;28;20054;-45
2023/05/28 10:03:10;;;;;;;12.45;3.90;;;21.90;42.10;;;;;;5014887;28;20084;-43
2023/05/28 10:05:39;;;;;;;8.10;3.58;;;22.00;42.30;;;;;;5013840;28;20057;-45
2023/05/28 10:08:08;;;;;;;12.35;4.93;;;22.10;42.10;;;;;;5015178;28;20083;-43
2023/05/28 10:10:36;;;;;;;8.80;3.67;;;22.10;41.20;;;;;;5016510;28;20053;-45
2023/05/28 10:13:07;;;;;;;9.57;3.88;;;22.20;40.90;;;;;;5015262;28;20057;-43
2023/05/28 10:15:35;;;;;;;9.60;4.38;;;22.20;40.40;;;;;;5013956;28;20045;-45
2023/05/28 10:18:03;;;;;;;8.77;4.10;;;22.30;39.80;;;;;;5014683;28;20041;-45
2023/05/28 10:20:31;;;;;;;10.50;4.22;;;22.30;39.90;;;;;;5012811;28;20057;-44
2023/05/28 10:22:59;;;;;;;9.07;4.10;;;22.40;40.10;;;;;;5014915;28;20062;-44
2023/05/28 10:25:26;;;;;;;10.07;4.00;;;22.40;40.10;;;;;;5015217;28;20441;-45
2023/05/28 10:27:59;;;;;;;7.88;3.88;;;22.50;39.80;;;;;;5013587;28;20056;-45
2023/05/28 10:30:35;;;;;;;11.73;4.30;;;22.50;40.00;;;;;;5015051;28;20489;-45
2023/05/28 10:33:05;;;;;;;8.75;3.38;;;22.60;40.40;;;;;;5015793;28;20064;-45
2023/05/28 10:35:35;;;;;;;9.98;3.75;;;22.70;40.40;;;;;;5012463;28;20065;-45
2023/05/28 10:38:10;;;;;;;11.40;4.05;;;22.70;40.40;;;;;;5014097;28;20420;-43
2023/05/28 10:40:40;;;;;;;8.05;3.90;;;22.70;38.90;;;;;;5015033;28;20060;-43
2023/05/28 10:43:41;;;;;;;7.50;3.70;;;22.80;38.80;;;;;;5014433;28;20060;-44
2023/05/28 10:46:12;;;;;;;7.82;3.80;;;22.80;39.00;;;;;;5013124;28;20604;-45
2023/05/28 10:48:40;;;;;;;7.65;3.72;;;22.90;39.50;;;;;;5013317;28;20053;-45
2023/05/28 10:51:08;;;;;;;10.40;3.63;;;23.00;40.00;;;;;;5013043;28;20056;-43
2023/05/28 10:53:35;;;;;;;10.05;3.55;;;23.00;39.40;;;;;;5013268;28;20385;-45
2023/05/28 10:56:03;;;;;;;11.55;4.40;;;23.00;38.00;;;;;;5018331;28;20057;-45
2023/05/28 10:58:34;;;;;;;9.55;4.00;;;23.10;37.70;;;;;;5021988;28;20057;-45
2023/05/28 11:01:05;;;;;;;10.07;3.90;;;23.10;38.00;;;;;;5021021;28;20057;-43
2023/05/28 11:03:48;;;;;;;7.97;3.72;;;23.20;38.10;;;;;;5022465;28;20413;-45
2023/05/28 11:06:15;;;;;;;7.15;3.35;;;23.20;38.60;;;;;;5022380;28;20049;-46
2023/05/28 11:08:44;;;;;;;5.97;3.00;;;23.20;38.40;;;;;;5020400;28;20065;-43
2023/05/28 11:11:13;;;;;;;9.98;3.92;;;23.30;39.00;;;;;;5020164;28;20053;-48
2023/05/28 11:13:42;;;;;;;10.98;4.20;;;23.30;38.20;;;;;;5012356;28;20087;-44
2023/05/28 11:16:11;;;;;;;11.15;3.92;;;23.40;38.40;;;;;;5019250;28;20069;-44
2023/05/28 11:18:38;;;;;;;10.45;4.03;;;23.50;39.10;;;;;;5018754;28;20540;-44
2023/05/28 11:21:09;;;;;;;8.48;4.00;;;23.50;37.80;;;;;;5014421;28;20053;-46
2023/05/28 11:23:37;;;;;;;9.90;4.10;;;23.50;37.90;;;;;;5015416;28;20056;-44
2023/05/28 11:26:06;;;;;;;7.60;3.55;;;23.60;37.30;;;;;;5018973;28;20052;-43
2023/05/28 11:28:33;;;;;;;11.32;3.97;;;23.70;37.80;;;;;;5016685;28;20488;-48
2023/05/28 11:31:01;;;;;;;8.02;3.80;;;23.70;37.20;;;;;;5014243;28;20540;-44
2023/05/28 11:33:28;;;;;;;11.00;4.45;;;23.80;36.80;;;;;;5016452;28;20053;-43
2023/05/28 11:36:02;;;;;;;15.10;4.47;;;23.80;36.90;;;;;;5016956;28;20060;-44
2023/05/28 11:38:30;;;;;;;9.73;3.92;;;23.80;36.90;;;;;;5014349;28;20497;-45
2023/05/28 11:41:02;;;;;;;6.57;3.60;;;23.90;37.10;;;;;;5015174;28;20049;-44
2023/05/28 11:43:29;;;;;;;8.13;3.63;;;23.90;36.90;;;;;;5015095;28;20053;-44
2023/05/28 11:46:00;;;;;;;7.95;3.78;;;24.00;36.20;;;;;;5016373;28;20057;-42
2023/05/28 11:48:28;;;;;;;5.13;3.40;;;24.00;36.80;;;;;;5017425;28;20056;-43
2023/05/28 11:51:01;;;;;;;8.13;3.85;;;24.10;37.10;;;;;;5018275;28;20045;-43
2023/05/28 11:53:45;;;;;;;8.15;4.43;;;24.10;37.30;;;;;;5015213;28;20064;-42
2023/05/28 11:56:13;;;;;;;7.57;3.78;;;24.20;34.90;;;;;;5013366;28;20041;-43
2023/05/28 11:58:45;;;;;;;10.82;4.93;;;24.20;35.10;;;;;;5016822;28;20489;-45
2023/05/28 12:01:15;;;;;;;10.23;4.00;;;24.30;34.40;;;;;;5018699;28;20062;-43
2023/05/28 12:03:45;;;;;;;9.18;4.30;;;24.30;34.70;;;;;;5016813;28;20045;-44
2023/05/28 12:06:12;;;;;;;8.75;4.30;;;24.30;34.20;;;;;;5018290;28;20060;-43
2023/05/28 12:08:40;;;;;;;8.63;3.63;;;24.40;33.50;;;;;;5015702;28;20056;-42
2023/05/28 12:11:10;;;;;;;8.70;4.10;;;24.40;34.00;;;;;;5016737;28;20489;-45
2023/05/28 12:13:38;;;;;;;7.38;3.90;;;24.40;34.60;;;;;;5018933;28;20053;-45
2023/05/28 12:16:10;;;;;;;9.65;4.05;;;24.50;35.40;;;;;;5015401;28;20049;-44
2023/05/28 12:18:41;;;;;;;8.93;4.30;;;24.50;34.30;;;;;;5019455;28;20057;-44
2023/05/28 12:21:11;;;;;;;9.88;4.10;;;24.50;34.20;;;;;;5016750;28;20057;-46
2023/05/28 12:23:39;;;;;;;12.45;4.75;;;24.60;34.00;;;;;;5016832;28;20057;-45
2023/05/28 12:26:12;;;;;;;8.10;4.43;;;24.70;34.00;;;;;;5016740;28;20046;-44
2023/05/28 12:28:40;;;;;;;10.50;4.70;;;24.70;33.80;;;;;;5013893;28;20397;-43
2023/05/28 12:31:08;;;;;;;7.10;4.00;;;24.70;33.50;;;;;;5017952;28;20046;-43
2023/05/28 12:33:35;;;;;;;7.93;4.00;;;24.80;34.00;;;;;;5017069;28;20056;-45
2023/05/28 12:36:03;;;;;;;6.22;3.67;;;24.90;33.40;;;;;;5017205;28;20046;-43
2023/05/28 12:38:30;;;;;;;6.70;4.03;;;24.90;33.70;;;;;;5015240;28;20072;-44
2023/05/28 12:40:58;;;;;;;7.30;4.28;;;24.90;33.60;;;;;;5018087;28;20405;-45
2023/05/28 12:43:27;;;;;;;6.80;3.95;;;25.00;33.20;;;;;;5015947;28;20046;-46
2023/05/28 12:45:54;;;;;;;8.90;4.60;;;25.00;32.30;;;;;;5019192;28;20045;-44
2023/05/28 12:48:22;;;;;;;7.75;4.25;;;25.00;32.50;;;;;;5016795;28;20422;-44
2023/05/28 12:50:49;;;;;;;10.30;4.72;;;25.10;33.40;;;;;;5017440;28;20049;-45
2023/05/28 12:53:16;;;;;;;9.10;4.90;;;25.10;33.30;;;;;;5016989;28;20088;-43